Time;durP1;ratioP1;P1;durP2;ratioP2;P2;SDS_P1;SDS_P2;PMS_P1;PMS_P2;Temp;Humidity;BMP_temperature;BMP_pressure;BME280_temperature;BME280_humidity;BME280_pressure;Samples;Min_cycle;Max_cycle;Signal;HPM_P1;HPM_P2
2023/02/25 00:00:33;;;;;;;6.93;1.27;;;;;;;4.65;100.00;95003.84;5040140;28;20312;-68
2023/02/25 00:03:00;;;;;;;3.30;1.13;;;;;;;4.69;100.00;95006.91;5039939;28;20232;-68
2023/02/25 00:05:29;;;;;;;3.00;1.43;;;;;;;4.43;100.00;95017.63;5038494;28;20229;-68
2023/02/25 00:07:55;;;;;;;2.37;1.10;;;;;;;4.51;100.00;95008.97;5040348;28;20274;-68
2023/02/25 00:10:22;;;;;;;1.93;1.13;;;;;;;4.64;100.00;95012.63;5039098;28;20205;-68
2023/02/25 00:12:50;;;;;;;1.27;0.87;;;;;;;4.59;100.00;95017.56;5039309;28;20235;-68
2023/02/25 00:15:16;;;;;;;2.80;1.10;;;;;;;4.63;100.00;95018.84;5039838;28;20209;-68
2023/02/25 00:17:43;;;;;;;3.50;1.43;;;;;;;4.64;100.00;95010.03;5039174;28;20216;-68
2023/02/25 00:20:12;;;;;;;2.73;1.10;;;;;;;4.73;100.00;95013.41;5039527;28;20697;-68
2023/02/25 00:22:38;;;;;;;1.50;1.10;;;;;;;4.75;100.00;95006.22;5039664;28;20229;-68
2023/02/25 00:25:06;;;;;;;2.90;1.30;;;;;;;4.75;100.00;95003.59;5039021;28;20201;-68
2023/02/25 00:27:32;;;;;;;1.57;1.20;;;;;;;4.68;100.00;95011.31;5039623;28;20215;-68
2023/02/25 00:30:00;;;;;;;2.93;1.17;;;;;;;4.56;100.00;95004.84;5039807;28;20976;-68
2023/02/25 00:32:27;;;;;;;2.40;1.17;;;;;;;4.47;100.00;95013.72;5039619;28;20670;-68
2023/02/25 00:34:53;;;;;;;1.73;1.00;;;;;;;4.41;100.00;95016.19;5038828;28;20205;-68
2023/02/25 00:37:20;;;;;;;2.13;1.47;;;;;;;4.43;100.00;95024.63;5039619;28;20211;-68
2023/02/25 00:39:46;;;;;;;2.40;1.23;;;;;;;4.32;100.00;95038.06;5039470;28;20255;-68
2023/02/25 00:42:15;;;;;;;3.37;1.40;;;;;;;4.44;100.00;95037.53;5039547;28;20212;-68
2023/02/25 00:44:43;;;;;;;4.87;1.73;;;;;;;4.39;100.00;95046.81;5038269;28;20372;-68
2023/02/25 00:47:11;;;;;;;2.83;1.57;;;;;;;4.26;100.00;95038.72;5039137;28;20198;-68
2023/02/25 00:49:38;;;;;;;1.00;0.63;;;;;;;4.26;100.00;95036.94;5039586;28;20208;-68
2023/02/25 00:52:04;;;;;;;3.30;1.37;;;;;;;4.25;100.00;95034.47;5039241;28;20665;-68
2023/02/25 00:54:31;;;;;;;2.77;1.77;;;;;;;4.15;100.00;95039.09;5038532;28;20227;-68
2023/02/25 00:56:57;;;;;;;4.57;2.33;;;;;;;4.13;100.00;95045.44;5038946;28;20255;-68
2023/02/25 00:59:24;;;;;;;5.80;2.07;;;;;;;4.12;100.00;95049.81;5039179;28;20569;-68
2023/02/25 01:01:50;;;;;;;2.27;1.33;;;;;;;4.14;100.00;95042.66;5039162;28;20216;-68
2023/02/25 01:04:18;;;;;;;2.63;1.00;;;;;;;4.21;100.00;95035.00;5038237;28;20235;-68
2023/02/25 01:06:44;;;;;;;4.40;2.10;;;;;;;4.11;100.00;95043.00;5038787;28;20215;-68
2023/02/25 01:09:12;;;;;;;1.63;1.20;;;;;;;4.20;100.00;95036.81;5038787;28;20201;-68
2023/02/25 01:11:40;;;;;;;5.93;2.77;;;;;;;4.17;100.00;95033.72;5038823;28;21223;-68
2023/02/25 01:14:10;;;;;;;4.87;2.43;;;;;;;3.99;100.00;95049.53;5037659;28;20996;-68
2023/02/25 01:16:37;;;;;;;4.07;1.57;;;;;;;4.03;100.00;95042.22;5038546;28;20210;-68
2023/02/25 01:19:06;;;;;;;2.60;1.87;;;;;;;4.16;100.00;95052.94;5038787;28;20225;-68
2023/02/25 01:21:36;;;;;;;3.13;1.90;;;;;;;4.13;100.00;95061.88;5039148;28;20620;-68
2023/02/25 01:24:05;;;;;;;6.87;3.10;;;;;;;4.12;100.00;95049.03;5038095;28;20228;-68
2023/02/25 01:26:35;;;;;;;12.13;2.67;;;;;;;4.18;100.00;95056.19;5038634;28;20201;-68
2023/02/25 01:29:01;;;;;;;8.00;3.67;;;;;;;4.10;100.00;95050.97;5038642;28;20205;-68
2023/02/25 01:31:28;;;;;;;4.27;2.13;;;;;;;4.08;100.00;95051.16;5038864;28;20219;-68
2023/02/25 01:33:57;;;;;;;4.57;1.87;;;;;;;4.11;100.00;95065.63;5037233;28;20324;-68
2023/02/25 01:36:24;;;;;;;5.37;2.97;;;;;;;4.01;100.00;95060.63;5038235;28;20205;-68
2023/02/25 01:38:52;;;;;;;5.73;2.90;;;;;;;4.07;100.00;95061.75;5038327;28;20267;-68
2023/02/25 01:41:18;;;;;;;5.00;2.33;;;;;;;3.92;100.00;95068.59;5038351;28;20197;-68
2023/02/25 01:44:08;;;;;;;11.17;3.77;;;;;;;4.13;100.00;95066.31;5037277;28;20235;-68
2023/02/25 01:46:35;;;;;;;2.47;1.23;;;;;;;3.84;100.00;95060.81;5038172;28;20323;-68
2023/02/25 01:49:02;;;;;;;3.77;2.27;;;;;;;3.91;100.00;95052.16;5039291;28;20228;-68
2023/02/25 01:51:30;;;;;;;8.13;3.57;;;;;;;3.91;100.00;95046.97;5038619;28;21232;-68
2023/02/25 01:54:01;;;;;;;10.93;3.47;;;;;;;4.11;100.00;95047.41;5037421;28;20228;-68
2023/02/25 01:56:29;;;;;;;3.07;1.80;;;;;;;3.94;100.00;95045.81;5037994;28;20212;-68
2023/02/25 01:58:55;;;;;;;6.83;3.30;;;;;;;4.02;100.00;95035.38;5038061;28;20680;-68
2023/02/25 02:01:25;;;;;;;6.60;3.27;;;;;;;4.08;100.00;95043.34;5038268;28;20204;-68
2023/02/25 02:03:52;;;;;;;6.50;3.20;;;;;;;4.01;100.00;95063.22;5037180;28;20868;-68
2023/02/25 02:06:23;;;;;;;10.27;3.23;;;;;;;4.05;100.00;95058.47;5037609;28;20205;-68
2023/02/25 02:08:50;;;;;;;6.67;3.57;;;;;;;4.05;100.00;95071.50;5037728;28;20205;-68
2023/02/25 02:11:18;;;;;;;7.40;3.67;;;;;;;3.95;100.00;95073.50;5037535;28;20205;-68
2023/02/25 02:13:49;;;;;;;8.60;3.57;;;;;;;4.04;100.00;95064.69;5037027;28;20588;-68
2023/02/25 02:16:30;;;;;;;9.47;3.50;;;;;;;4.00;100.00;95066.81;5037520;28;20201;-68
2023/02/25 02:18:59;;;;;;;3.83;2.20;;;;;;;3.91;100.00;95064.41;5036621;28;20307;-68
2023/02/25 02:21:49;;;;;;;5.83;3.23;;;;;;;4.06;100.00;95057.50;5037623;28;20204;-68
2023/02/25 02:24:35;;;;;;;7.10;3.60;;;;;;;4.04;100.00;95064.69;5036144;28;20299;-68
2023/02/25 02:27:07;;;;;;;5.90;3.13;;;;;;;4.03;100.00;95065.66;5037670;28;20220;-68
2023/02/25 02:30:13;;;;;;;9.50;3.43;;;;;;;4.06;100.00;95063.56;5037042;28;20197;-68
2023/02/25 02:32:46;;;;;;;9.37;3.43;;;;;;;4.01;100.00;95068.44;5037347;28;20366;-68
2023/02/25 02:35:20;;;;;;;11.20;4.00;;;;;;;4.05;100.00;95064.53;5036536;28;20216;-68
2023/02/25 02:37:58;;;;;;;12.63;3.97;;;;;;;4.04;100.00;95067.28;5036972;28;20203;-68
2023/02/25 02:40:37;;;;;;;8.30;3.37;;;;;;;4.02;100.00;95062.25;5037130;28;20239;-68
2023/02/25 02:43:11;;;;;;;14.63;3.90;;;;;;;4.03;100.00;95063.84;5036525;28;20240;-68
2023/02/25 02:45:44;;;;;;;6.93;2.67;;;;;;;4.08;100.00;95069.38;5035404;28;20579;-68
2023/02/25 02:48:15;;;;;;;10.83;4.43;;;;;;;4.05;100.00;95074.94;5036227;28;20197;-68
2023/02/25 02:50:45;;;;;;;7.10;2.97;;;;;;;4.01;100.00;95081.47;5036529;28;20634;-68
2023/02/25 02:53:16;;;;;;;10.27;3.47;;;;;;;4.01;100.00;95084.06;5035964;28;20221;-68
2023/02/25 02:55:46;;;;;;;13.30;4.80;;;;;;;3.99;100.00;95082.63;5035239;28;20205;-68
2023/02/25 02:58:19;;;;;;;8.83;3.80;;;;;;;4.00;100.00;95076.44;5036037;28;20586;-68
2023/02/25 03:00:50;;;;;;;7.87;3.30;;;;;;;3.85;100.00;95081.47;5035876;28;20593;-68
2023/02/25 03:03:22;;;;;;;5.07;2.23;;;;;;;3.91;100.00;95085.25;5036354;28;20228;-68
2023/02/25 03:05:51;;;;;;;9.93;3.33;;;;;;;3.73;100.00;95095.03;5035393;28;20218;-68
2023/02/25 03:08:22;;;;;;;3.43;2.17;;;;;;;3.79;100.00;95095.19;5034096;28;20208;-68
2023/02/25 03:10:49;;;;;;;8.93;2.40;;;;;;;3.67;100.00;95086.06;5035879;28;20452;-68
2023/02/25 03:13:16;;;;;;;4.70;2.93;;;;;;;3.76;100.00;95090.28;5036348;28;20747;-68
2023/02/25 03:15:44;;;;;;;7.30;3.20;;;;;;;3.89;100.00;95085.38;5036057;28;20216;-68
2023/02/25 03:18:17;;;;;;;16.47;3.87;;;;;;;3.86;100.00;95085.72;5036215;28;20859;-68
2023/02/25 03:20:49;;;;;;;3.90;2.73;;;;;;;3.85;100.00;95097.13;5036333;28;20236;-68
2023/02/25 03:23:18;;;;;;;11.20;4.17;;;;;;;3.79;100.00;95100.41;5036473;28;20223;-68
2023/02/25 03:25:49;;;;;;;7.47;4.00;;;;;;;3.79;100.00;95104.78;5035336;28;20542;-68
2023/02/25 03:28:24;;;;;;;4.13;2.17;;;;;;;3.72;100.00;95109.81;5035715;28;20291;-68
2023/02/25 03:30:57;;;;;;;3.80;2.17;;;;;;;3.73;100.00;95105.44;5038899;28;20200;-68
2023/02/25 03:33:30;;;;;;;6.73;2.97;;;;;;;3.72;100.00;95109.81;5039937;28;20705;-68
2023/02/25 03:36:01;;;;;;;7.50;3.03;;;;;;;3.71;100.00;95107.38;5039321;28;20211;-68
2023/02/25 03:38:32;;;;;;;4.33;1.90;;;;;;;3.73;100.00;95111.47;5040050;28;20207;-68
2023/02/25 03:41:01;;;;;;;7.90;2.17;;;;;;;3.76;100.00;95116.31;5039992;28;20228;-68
2023/02/25 03:43:32;;;;;;;7.23;2.70;;;;;;;3.72;100.00;95122.03;5039301;28;20650;-68
2023/02/25 03:46:00;;;;;;;3.53;1.87;;;;;;;3.71;100.00;95129.03;5040084;28;20210;-68
2023/02/25 03:48:28;;;;;;;6.47;3.73;;;;;;;3.73;100.00;95127.09;5040480;28;20209;-68
2023/02/25 03:50:59;;;;;;;3.37;1.53;;;;;;;3.80;100.00;95125.44;5039973;28;20208;-68
2023/02/25 03:53:26;;;;;;;4.17;2.80;;;;;;;3.69;100.00;95133.59;5039883;28;20798;-68
2023/02/25 03:55:52;;;;;;;13.93;2.70;;;;;;;3.76;100.00;95136.38;5039752;28;20775;-68
2023/02/25 03:58:19;;;;;;;9.13;3.33;;;;;;;3.69;100.00;95131.00;5040409;28;20212;-68
2023/02/25 04:00:48;;;;;;;9.20;2.83;;;;;;;3.82;100.00;95126.09;5040444;28;20236;-68
2023/02/25 04:03:14;;;;;;;2.87;1.43;;;;;;;3.83;100.00;95132.13;5039705;28;20723;-68
2023/02/25 04:05:41;;;;;;;4.90;2.30;;;;;;;3.80;100.00;95125.44;5039568;28;20213;-68
2023/02/25 04:08:14;;;;;;;3.13;1.70;;;;;;;3.83;100.00;95119.94;5040169;28;20211;-68
2023/02/25 04:10:42;;;;;;;4.80;2.10;;;;;;;3.70;100.00;95127.41;5040017;28;20244;-68
2023/02/25 04:13:09;;;;;;;5.10;3.23;;;;;;;3.68;100.00;95129.34;5039550;28;20259;-68
2023/02/25 04:15:35;;;;;;;13.00;4.00;;;;;;;3.77;100.00;95124.97;5039468;28;20205;-68
2023/02/25 04:18:02;;;;;;;9.90;1.90;;;;;;;3.80;100.00;95132.47;5040100;28;20659;-68
2023/02/25 04:20:29;;;;;;;9.23;4.10;;;;;;;3.78;100.00;95135.22;5039516;28;20224;-68
2023/02/25 04:22:56;;;;;;;6.23;2.80;;;;;;;3.85;100.00;95141.41;5039764;28;20232;-68
2023/02/25 04:25:24;;;;;;;6.33;2.57;;;;;;;3.87;100.00;95144.69;5039048;28;20204;-68
2023/02/25 04:27:50;;;;;;;2.27;1.97;;;;;;;3.81;100.00;95144.50;5040021;28;20208;-68
2023/02/25 04:30:17;;;;;;;8.10;3.53;;;;;;;3.84;100.00;95142.38;5039686;28;20567;-68
2023/02/25 04:32:44;;;;;;;2.93;2.07;;;;;;;3.84;100.00;95147.59;5039892;28;20225;-68
2023/02/25 04:35:11;;;;;;;9.37;2.77;;;;;;;3.90;100.00;95141.72;5038491;28;20204;-68
2023/02/25 04:37:38;;;;;;;7.03;2.83;;;;;;;3.81;100.00;95150.53;5039384;28;20205;-68
2023/02/25 04:40:10;;;;;;;6.20;3.20;;;;;;;3.88;100.00;95153.28;5039696;28;20235;-68
2023/02/25 04:42:38;;;;;;;8.37;2.90;;;;;;;3.97;100.00;95150.53;5038549;28;20228;-68
2023/02/25 04:45:05;;;;;;;5.17;2.17;;;;;;;3.95;100.00;95157.69;5038355;28;20211;-68
2023/02/25 04:47:31;;;;;;;6.60;3.20;;;;;;;4.02;100.00;95155.25;5039671;28;20197;-68
2023/02/25 04:49:58;;;;;;;9.13;3.53;;;;;;;4.07;100.00;95153.78;5039160;28;20229;-68
2023/02/25 04:52:25;;;;;;;12.63;3.83;;;;;;;3.92;100.00;95147.59;5039289;28;20208;-68
2023/02/25 04:54:51;;;;;;;3.37;1.73;;;;;;;3.91;100.00;95150.38;5038521;28;21181;-68
2023/02/25 04:57:18;;;;;;;10.70;3.87;;;;;;;4.09;100.00;95138.78;5039216;28;20581;-68
2023/02/25 04:59:46;;;;;;;6.37;2.97;;;;;;;4.10;100.00;95143.03;5039121;28;20236;-68
2023/02/25 05:02:13;;;;;;;11.90;4.13;;;;;;;4.03;100.00;95147.25;5039048;28;20207;-68
2023/02/25 05:04:40;;;;;;;6.93;2.50;;;;;;;3.85;100.00;95153.63;5038486;28;20572;-68
2023/02/25 05:07:07;;;;;;;8.23;3.30;;;;;;;3.78;100.00;95150.88;5038631;28;20202;-68
2023/02/25 05:09:34;;;;;;;6.87;2.70;;;;;;;3.55;100.00;95156.84;5038608;28;20200;-68
2023/02/25 05:12:01;;;;;;;5.70;2.60;;;;;;;3.58;100.00;95159.16;5038760;28;20671;-68
2023/02/25 05:14:28;;;;;;;5.80;2.40;;;;;;;3.47;100.00;95159.44;5037970;28;20282;-68
2023/02/25 05:16:56;;;;;;;2.50;1.93;;;;;;;3.56;100.00;95166.28;5038736;28;20208;-68
2023/02/25 05:19:24;;;;;;;6.83;2.20;;;;;;;3.53;100.00;95166.63;5038412;28;21115;-68
2023/02/25 05:21:52;;;;;;;2.63;0.87;;;;;;;3.48;100.00;95170.69;5038947;28;20681;-68
2023/02/25 05:24:22;;;;;;;1.67;1.37;;;;;;;3.42;100.00;95184.34;5038552;28;20227;-68
2023/02/25 05:26:50;;;;;;;4.73;1.63;;;;;;;3.47;100.00;95180.28;5038848;28;20203;-68
2023/02/25 05:29:17;;;;;;;6.90;1.90;;;;;;;3.38;100.00;95176.03;5038605;28;20226;-68
2023/02/25 05:31:43;;;;;;;8.07;2.00;;;;;;;3.37;100.00;95182.19;5038506;28;20203;-68
2023/02/25 05:34:11;;;;;;;4.43;2.17;;;;;;;3.41;100.00;95180.94;5037716;28;20227;-68
2023/02/25 05:36:38;;;;;;;5.73;2.37;;;;;;;3.35;100.00;95183.38;5038403;28;20205;-68
2023/02/25 05:39:05;;;;;;;2.47;1.70;;;;;;;3.38;99.69;95177.81;5038631;28;20207;-68
2023/02/25 05:41:31;;;;;;;8.53;2.77;;;;;;;3.44;100.00;95178.00;5037995;28;20251;-68
2023/02/25 05:43:58;;;;;;;3.40;1.33;;;;;;;3.47;100.00;95177.66;5037440;28;20255;-68
2023/02/25 05:46:25;;;;;;;7.37;2.30;;;;;;;3.46;100.00;95176.03;5038127;28;20226;-68
2023/02/25 05:48:51;;;;;;;8.47;2.33;;;;;;;3.36;100.00;95171.94;5037943;28;20748;-68
2023/02/25 05:51:22;;;;;;;8.43;2.17;;;;;;;3.48;100.00;95174.09;5038228;28;20200;-68
2023/02/25 05:53:48;;;;;;;8.83;2.40;;;;;;;3.40;100.00;95181.06;5036423;28;20238;-68
2023/02/25 05:56:17;;;;;;;9.83;1.97;;;;;;;3.41;100.00;95177.50;5038733;28;20208;-68
2023/02/25 05:58:45;;;;;;;2.73;1.57;;;;;;;3.24;100.00;95181.84;5038776;28;20211;-68
2023/02/25 06:01:14;;;;;;;1.50;1.23;;;;;;;3.39;100.00;95188.06;5037514;28;20231;-68
2023/02/25 06:03:42;;;;;;;9.90;2.60;;;;;;;3.42;100.00;95184.34;5037058;28;20239;-68
2023/02/25 06:06:12;;;;;;;5.63;2.53;;;;;;;3.39;100.00;95187.28;5037561;28;20204;-68
2023/02/25 06:08:40;;;;;;;10.57;2.33;;;;;;;3.41;100.00;95199.16;5037784;28;20207;-68
2023/02/25 06:11:07;;;;;;;3.37;2.17;;;;;;;3.14;100.00;95201.16;5037795;28;20208;-68
2023/02/25 06:13:34;;;;;;;2.77;1.77;;;;;;;3.09;100.00;95203.44;5037331;28;20235;-68
2023/02/25 06:16:03;;;;;;;11.40;2.77;;;;;;;3.09;100.00;95203.44;5037038;28;20212;-68
2023/02/25 06:18:35;;;;;;;8.43;2.87;;;;;;;3.03;100.00;95202.28;5034423;28;20203;-68
2023/02/25 06:21:04;;;;;;;6.47;2.43;;;;;;;3.08;100.00;95199.19;5036834;28;20227;-68
2023/02/25 06:23:31;;;;;;;4.50;2.17;;;;;;;3.12;100.00;95198.72;5036961;28;20228;-68
2023/02/25 06:25:59;;;;;;;5.10;1.80;;;;;;;3.16;100.00;95200.03;5036366;28;20238;-68
2023/02/25 06:28:25;;;;;;;8.93;2.93;;;;;;;3.09;100.00;95204.25;5036733;28;20204;-68
2023/02/25 06:30:52;;;;;;;4.13;2.00;;;;;;;3.18;100.00;95210.28;5037728;28;20606;-68
2023/02/25 06:33:19;;;;;;;12.20;2.97;;;;;;;3.11;100.00;95217.09;5037059;28;20219;-68
2023/02/25 06:35:45;;;;;;;4.47;1.97;;;;;;;3.18;100.00;95216.31;5036343;28;20216;-68
2023/02/25 06:38:12;;;;;;;14.10;3.10;;;;;;;3.12;100.00;95223.94;5037142;28;20262;-68
2023/02/25 06:40:38;;;;;;;4.80;2.60;;;;;;;3.18;100.00;95218.94;5037041;28;20241;-68
2023/02/25 06:43:06;;;;;;;5.83;2.63;;;;;;;3.28;100.00;95211.78;5037024;28;20243;-68
2023/02/25 06:45:32;;;;;;;3.10;1.10;;;;;;;3.21;100.00;95216.00;5036382;28;20211;-68
2023/02/25 06:47:59;;;;;;;6.30;0.97;;;;;;;3.12;98.68;95219.56;5036949;28;20213;-68
2023/02/25 06:50:25;;;;;;;6.40;1.70;;;;;;;3.10;97.58;95218.06;5036897;28;20201;-68
2023/02/25 06:52:52;;;;;;;6.10;1.93;;;;;;;3.09;98.35;95217.28;5036531;28;20239;-68
2023/02/25 06:55:18;;;;;;;5.70;1.90;;;;;;;3.15;97.83;95223.63;5036128;28;20203;-68
2023/02/25 06:57:45;;;;;;;5.00;2.03;;;;;;;3.21;97.63;95233.41;5036849;28;20606;-68
2023/02/25 07:00:14;;;;;;;8.80;3.10;;;;;;;3.35;97.35;95233.63;5037032;28;20200;-68
2023/02/25 07:02:41;;;;;;;12.67;1.40;;;;;;;3.24;97.13;95233.09;5036713;28;21335;-68
2023/02/25 07:05:08;;;;;;;1.90;1.37;;;;;;;3.25;98.05;95232.94;5035714;28;20557;-68
2023/02/25 07:07:35;;;;;;;1.37;0.90;;;;;;;3.11;96.94;95228.31;5036474;28;20211;-68
2023/02/25 07:10:01;;;;;;;3.43;1.30;;;;;;;3.12;96.38;95234.38;5036706;28;20685;-68
2023/02/25 07:12:27;;;;;;;1.97;1.40;;;;;;;3.28;96.36;95229.19;5036054;28;20585;-68
2023/02/25 07:14:55;;;;;;;3.33;1.83;;;;;;;3.27;96.70;95230.16;5036198;28;20220;-68
2023/02/25 07:17:23;;;;;;;7.83;1.57;;;;;;;3.34;96.88;95233.78;5035471;28;20206;-68
2023/02/25 07:19:49;;;;;;;3.33;1.70;;;;;;;3.43;95.75;95241.44;5035918;28;20861;-68
2023/02/25 07:22:17;;;;;;;1.57;1.13;;;;;;;3.60;95.38;95248.34;5035993;28;20223;-68
2023/02/25 07:24:45;;;;;;;3.97;1.40;;;;;;;3.36;95.59;95263.06;5034878;28;20669;-68
2023/02/25 07:27:13;;;;;;;1.73;1.10;;;;;;;3.50;96.31;95252.06;5036148;28;20200;-68
2023/02/25 07:29:40;;;;;;;2.70;1.10;;;;;;;3.61;96.01;95254.38;5036100;28;20208;-68
2023/02/25 07:32:07;;;;;;;3.13;1.70;;;;;;;3.62;95.30;95254.22;5035751;28;20205;-68
2023/02/25 07:34:36;;;;;;;2.73;1.13;;;;;;;3.62;94.66;95253.41;5034858;28;20271;-68
2023/02/25 07:37:03;;;;;;;1.37;0.90;;;;;;;3.53;94.03;95243.94;5035992;28;20211;-68
2023/02/25 07:39:29;;;;;;;2.90;1.40;;;;;;;3.61;94.13;95243.97;5036729;28;20208;-68
2023/02/25 07:41:56;;;;;;;7.67;1.67;;;;;;;3.56;94.49;95252.22;5035946;28;20225;-68
2023/02/25 07:44:22;;;;;;;2.07;0.83;;;;;;;3.69;94.35;95245.59;5035728;28;20239;-68
2023/02/25 07:46:49;;;;;;;5.70;1.13;;;;;;;3.62;93.52;95255.00;5035756;28;20204;-68
2023/02/25 07:49:15;;;;;;;1.60;0.70;;;;;;;3.63;93.42;95256.66;5036436;28;20208;-68
2023/02/25 07:51:43;;;;;;;3.90;0.90;;;;;;;3.87;94.96;95248.91;5034069;28;20228;-68
2023/02/25 07:54:10;;;;;;;4.10;0.60;;;;;;;3.82;94.62;95256.38;5034189;28;20588;-68
2023/02/25 07:56:36;;;;;;;3.67;1.20;;;;;;;3.90;93.89;95238.13;5033855;28;20207;-68
2023/02/25 07:59:03;;;;;;;0.90;0.90;;;;;;;3.92;91.55;95235.38;5035826;28;20565;-68
2023/02/25 08:01:34;;;;;;;1.43;0.70;;;;;;;3.96;90.94;95237.50;5036136;28;20228;-68
2023/02/25 08:04:04;;;;;;;1.70;0.70;;;;;;;3.96;90.73;95237.50;5035369;28;20260;-68
2023/02/25 08:06:30;;;;;;;0.70;0.67;;;;;;;3.99;90.19;95231.97;5035970;28;20215;-69
2023/02/25 08:08:58;;;;;;;10.23;0.80;;;;;;;4.06;91.76;95227.75;5036086;28;20208;-68
2023/02/25 08:11:26;;;;;;;2.47;1.17;;;;;;;4.07;91.27;95224.13;5036244;28;20315;-68
2023/02/25 08:13:52;;;;;;;2.27;0.90;;;;;;;4.12;89.92;95223.66;5034948;28;20233;-68
2023/02/25 08:16:20;;;;;;;4.13;1.23;;;;;;;4.18;89.46;95221.22;5035518;28;20209;-68
2023/02/25 08:18:47;;;;;;;10.47;1.93;;;;;;;4.30;90.80;95222.50;5039909;28;20211;-68
2023/02/25 08:21:16;;;;;;;2.87;0.70;;;;;;;4.15;86.22;95233.75;5039895;28;20228;-68
2023/02/25 08:23:43;;;;;;;2.27;0.73;;;;;;;4.24;85.82;95231.00;5038998;28;20224;-68
2023/02/25 08:26:11;;;;;;;0.90;0.53;;;;;;;4.32;84.40;95236.22;5039838;28;20197;-68
2023/02/25 08:28:38;;;;;;;0.63;0.47;;;;;;;4.21;81.91;95246.16;5039683;28;20278;-68
2023/02/25 08:31:06;;;;;;;0.63;0.43;;;;;;;4.31;76.28;95242.41;5039648;28;20204;-69
2023/02/25 08:33:33;;;;;;;8.13;1.53;;;;;;;4.51;75.45;95238.50;5039190;28;20220;-69
2023/02/25 08:36:08;;;;;;;7.07;0.70;;;;;;;4.69;73.24;95239.13;5038928;28;20204;-69
2023/02/25 08:38:35;;;;;;;1.97;1.47;;;;;;;4.76;77.49;95237.47;5039393;28;20292;-69
2023/02/25 08:41:01;;;;;;;1.03;0.87;;;;;;;4.89;71.97;95231.56;5039153;28;20224;-68
2023/02/25 08:43:30;;;;;;;1.00;0.40;;;;;;;4.88;66.04;95227.31;5039000;28;20240;-69
2023/02/25 08:45:56;;;;;;;1.20;0.50;;;;;;;4.73;67.81;95225.56;5038947;28;20677;-69
2023/02/25 08:48:22;;;;;;;2.90;0.60;;;;;;;4.83;66.74;95229.59;5039184;28;20685;-68
2023/02/25 08:50:49;;;;;;;1.30;0.77;;;;;;;4.78;65.89;95225.06;5039497;28;20263;-69
2023/02/25 08:53:15;;;;;;;3.87;0.43;;;;;;;4.81;67.76;95235.16;5038620;28;20231;-69
2023/02/25 08:55:42;;;;;;;6.83;0.80;;;;;;;4.97;67.75;95244.59;5038305;28;20212;-68
2023/02/25 08:58:08;;;;;;;2.87;0.70;;;;;;;4.88;69.04;95242.97;5037169;28;20205;-68
2023/02/25 09:00:36;;;;;;;0.87;0.50;;;;;;;4.93;68.21;95238.06;5038284;28;20212;-69
2023/02/25 09:03:03;;;;;;;1.43;0.57;;;;;;;4.95;70.77;95238.72;5038826;28;20229;-69
2023/02/25 09:05:29;;;;;;;2.37;0.73;;;;;;;4.83;70.31;95237.44;5038328;28;20201;-69
2023/02/25 09:07:57;;;;;;;0.77;0.53;;;;;;;4.57;70.89;95233.44;5039051;28;20216;-69
2023/02/25 09:10:24;;;;;;;4.73;0.60;;;;;;;4.76;73.56;95232.25;5038631;28;21146;-69
2023/02/25 09:12:51;;;;;;;3.33;0.77;;;;;;;4.70;72.00;95244.16;5037992;28;20858;-69
2023/02/25 09:15:20;;;;;;;2.37;0.80;;;;;;;4.71;72.40;95237.13;5038194;28;20263;-69
2023/02/25 09:17:51;;;;;;;2.53;1.03;;;;;;;4.79;72.81;95242.38;5038060;28;20817;-69
2023/02/25 09:20:18;;;;;;;0.57;0.50;;;;;;;4.63;73.24;95239.78;5038548;28;20296;-69
2023/02/25 09:22:44;;;;;;;4.37;0.63;;;;;;;4.68;73.71;95245.31;5038929;28;20242;-69
2023/02/25 09:25:12;;;;;;;0.50;0.50;;;;;;;4.59;73.95;95238.47;5037801;28;20201;-68
2023/02/25 09:27:39;;;;;;;0.40;0.40;;;;;;;4.53;75.89;95246.94;5038290;28;20303;-68
2023/02/25 09:30:06;;;;;;;0.93;0.47;;;;;;;4.49;76.52;95243.88;5038576;28;20579;-68
2023/02/25 09:32:33;;;;;;;3.10;0.70;;;;;;;4.60;76.39;95242.72;5038238;28;20213;-69
2023/02/25 09:35:05;;;;;;;2.47;0.63;;;;;;;4.63;75.51;95247.59;5037190;28;20206;-68
2023/02/25 09:37:32;;;;;;;1.07;0.60;;;;;;;4.51;74.94;95243.72;5037408;28;20232;-69
2023/02/25 09:39:58;;;;;;;0.40;0.40;;;;;;;4.53;74.29;95244.34;5037769;28;20208;-69
2023/02/25 09:42:29;;;;;;;3.07;0.97;;;;;;;4.62;76.37;95235.53;5037925;28;20224;-68
2023/02/25 09:45:00;;;;;;;1.03;0.77;;;;;;;4.58;75.62;95242.88;5035143;28;20208;-68
2023/02/25 09:47:32;;;;;;;1.53;0.70;;;;;;;4.62;77.17;95241.56;5037468;28;20205;-68
2023/02/25 09:50:04;;;;;;;1.20;0.60;;;;;;;4.76;75.77;95246.13;5038180;28;20213;-68
2023/02/25 09:52:34;;;;;;;0.83;0.50;;;;;;;4.58;74.59;95234.22;5037337;28;21390;-68
2023/02/25 09:55:06;;;;;;;1.80;0.73;;;;;;;4.52;76.82;95229.66;5036616;28;20200;-68
2023/02/25 09:57:37;;;;;;;2.10;0.60;;;;;;;4.76;74.83;95222.63;5037105;28;20205;-68
2023/02/25 10:00:14;;;;;;;1.60;0.90;;;;;;;4.88;74.67;95222.09;5037943;28;20607;-69
2023/02/25 10:02:47;;;;;;;6.37;1.60;;;;;;;4.93;75.73;95219.81;5037763;28;20254;-69
2023/02/25 10:05:25;;;;;;;1.47;0.70;;;;;;;5.05;75.58;95213.25;5036123;28;20224;-69
2023/02/25 10:08:02;;;;;;;9.97;1.50;;;;;;;4.70;74.02;95218.06;5037796;28;20661;-69
2023/02/25 10:10:37;;;;;;;3.73;1.50;;;;;;;4.80;75.20;95221.31;5037671;28;20566;-69
2023/02/25 10:13:15;;;;;;;0.93;0.70;;;;;;;4.86;75.33;95218.03;5038181;28;20641;-69
2023/02/25 10:15:55;;;;;;;2.50;1.27;;;;;;;4.85;74.89;95227.66;5036818;28;20205;-69
2023/02/25 10:18:36;;;;;;;1.80;0.60;;;;;;;4.67;73.84;95218.41;5035628;28;20212;-69
2023/02/25 10:21:15;;;;;;;0.43;0.43;;;;;;;4.61;73.84;95228.66;5035947;28;20201;-69
2023/02/25 10:23:54;;;;;;;4.30;0.50;;;;;;;4.61;76.50;95223.47;5036971;28;20256;-69
2023/02/25 10:26:25;;;;;;;0.83;0.50;;;;;;;4.37;70.64;95231.31;5037842;28;20208;-69
2023/02/25 10:28:57;;;;;;;4.03;0.53;;;;;;;4.40;71.04;95228.38;5037334;28;20208;-68
2023/02/25 10:31:23;;;;;;;0.80;0.60;;;;;;;4.33;68.65;95236.03;5037082;28;20215;-69
2023/02/25 10:33:52;;;;;;;10.73;1.20;;;;;;;4.44;69.59;95233.13;5036363;28;20221;-67
2023/02/25 10:36:26;;;;;;;4.37;0.90;;;;;;;4.61;69.16;95234.72;5037630;28;20197;-70
2023/02/25 10:38:54;;;;;;;0.60;0.40;;;;;;;4.57;69.54;95232.59;5035952;28;20201;-69
2023/02/25 10:41:22;;;;;;;2.50;0.60;;;;;;;4.72;70.81;95228.34;5036877;28;20193;-68
2023/02/25 10:43:51;;;;;;;0.80;0.70;;;;;;;4.60;71.62;95224.47;5036433;28;20232;-69
2023/02/25 10:46:21;;;;;;;0.47;0.47;;;;;;;4.81;72.60;95225.53;5037000;28;20205;-69
2023/02/25 10:48:56;;;;;;;6.73;0.90;;;;;;;5.05;72.31;95223.69;5037728;28;20213;-67
2023/02/25 10:51:26;;;;;;;0.57;0.50;;;;;;;5.04;69.57;95209.00;5037337;28;20208;-69
2023/02/25 10:54:06;;;;;;;1.03;0.50;;;;;;;5.28;66.96;95206.28;5036125;28;20634;-69
2023/02/25 10:56:41;;;;;;;4.20;0.70;;;;;;;5.45;68.58;95210.47;5035280;28;20554;-70
2023/02/25 10:59:22;;;;;;;1.97;0.60;;;;;;;5.45;67.38;95200.03;5034518;28;20215;-69
2023/02/25 11:01:49;;;;;;;2.00;0.53;;;;;;;5.36;67.54;95206.28;5035562;28;20583;-69
2023/02/25 11:04:19;;;;;;;3.10;0.77;;;;;;;5.24;65.89;95197.16;5034097;28;20224;-69
2023/02/25 11:06:47;;;;;;;3.80;0.93;;;;;;;5.38;66.30;95193.84;5035311;28;20288;-68
2023/02/25 11:09:29;;;;;;;1.50;0.80;;;;;;;5.18;67.65;95195.25;5034488;28;20201;-67
2023/02/25 11:11:58;;;;;;;0.97;0.60;;;;;;;5.09;69.72;95193.66;5035841;28;20201;-69
2023/02/25 11:14:27;;;;;;;1.80;0.90;;;;;;;5.38;68.90;95182.59;5034392;28;20252;-69
2023/02/25 11:17:02;;;;;;;2.30;1.03;;;;;;;5.58;68.58;95179.38;5034848;28;20263;-69
2023/02/25 11:19:31;;;;;;;0.73;0.60;;;;;;;5.51;65.87;95181.03;5035878;28;20208;-67
2023/02/25 11:22:06;;;;;;;6.03;0.60;;;;;;;5.74;63.41;95180.09;5036227;28;20232;-69
2023/02/25 11:24:35;;;;;;;3.40;1.07;;;;;;;5.78;63.66;95180.56;5035246;28;20225;-69
2023/02/25 11:27:03;;;;;;;2.10;0.80;;;;;;;5.68;62.29;95174.75;5035562;28;20201;-70
2023/02/25 11:29:32;;;;;;;4.23;0.97;;;;;;;6.09;64.43;95174.31;5032730;28;20302;-69
2023/02/25 11:32:03;;;;;;;1.20;0.90;;;;;;;6.02;60.02;95172.56;5033842;28;20200;-68
2023/02/25 11:34:31;;;;;;;1.03;0.93;;;;;;;5.94;61.54;95167.41;5033387;28;20224;-70
2023/02/25 11:37:24;;;;;;;2.07;1.40;;;;;;;6.18;63.33;95165.41;5034889;28;20310;-69
2023/02/25 11:39:53;;;;;;;0.93;0.73;;;;;;;6.05;62.12;95160.75;5033975;28;20233;-68
2023/02/25 11:42:23;;;;;;;1.67;1.10;;;;;;;5.93;63.32;95155.31;5034220;28;20224;-68
2023/02/25 11:44:50;;;;;;;0.67;0.57;;;;;;;5.75;62.05;95170.44;5035361;28;20316;-68